sensor_id;sensor_type;location;lat;lon;timestamp;P1;durP1;ratioP1;P2;durP2;ratioP2
17864;SDS011;9058;52.018;4.202;2023-03-01T00:02:19;14.93;;;10.83;;
17864;SDS011;9058;52.018;4.202;2023-03-01T00:04:46;18.17;;;11.90;;
17864;SDS011;9058;52.018;4.202;2023-03-01T00:07:12;13.83;;;11.20;;
17864;SDS011;9058;52.018;4.202;2023-03-01T00:09:38;14.47;;;11.27;;
17864;SDS011;9058;52.018;4.202;2023-03-01T00:12:05;12.73;;;10.87;;
17864;SDS011;9058;52.018;4.202;2023-03-01T00:14:31;16.37;;;12.10;;
17864;SDS011;9058;52.018;4.202;2023-03-01T00:17:00;15.17;;;11.80;;
17864;SDS011;9058;52.018;4.202;2023-03-01T00:19:26;16.40;;;11.73;;
17864;SDS011;9058;52.018;4.202;2023-03-01T00:21:54;14.20;;;11.93;;
17864;SDS011;9058;52.018;4.202;2023-03-01T00:24:20;19.40;;;12.57;;
17864;SDS011;9058;52.018;4.202;2023-03-01T00:26:46;18.40;;;12.20;;
17864;SDS011;9058;52.018;4.202;2023-03-01T00:29:13;19.47;;;14.57;;
17864;SDS011;9058;52.018;4.202;2023-03-01T00:31:39;15.33;;;12.93;;
17864;SDS011;9058;52.018;4.202;2023-03-01T00:34:07;16.77;;;13.70;;
17864;SDS011;9058;52.018;4.202;2023-03-01T00:36:34;16.93;;;13.23;;
17864;SDS011;9058;52.018;4.202;2023-03-01T00:39:02;18.10;;;13.60;;
17864;SDS011;9058;52.018;4.202;2023-03-01T00:41:29;23.13;;;13.97;;
17864;SDS011;9058;52.018;4.202;2023-03-01T00:43:56;21.60;;;14.00;;
17864;SDS011;9058;52.018;4.202;2023-03-01T00:46:23;17.43;;;13.93;;
17864;SDS011;9058;52.018;4.202;2023-03-01T00:48:51;20.07;;;15.00;;
17864;SDS011;9058;52.018;4.202;2023-03-01T00:51:20;20.77;;;14.50;;
17864;SDS011;9058;52.018;4.202;2023-03-01T00:53:47;22.10;;;14.57;;
17864;SDS011;9058;52.018;4.202;2023-03-01T00:56:14;19.67;;;15.07;;
17864;SDS011;9058;52.018;4.202;2023-03-01T00:58:40;20.03;;;15.03;;
17864;SDS011;9058;52.018;4.202;2023-03-01T01:01:07;24.00;;;16.83;;
17864;SDS011;9058;52.018;4.202;2023-03-01T01:03:49;21.70;;;15.40;;
17864;SDS011;9058;52.018;4.202;2023-03-01T01:06:16;24.27;;;16.60;;
17864;SDS011;9058;52.018;4.202;2023-03-01T01:08:44;22.93;;;16.20;;
17864;SDS011;9058;52.018;4.202;2023-03-01T01:11:11;23.47;;;17.33;;
17864;SDS011;9058;52.018;4.202;2023-03-01T01:13:38;24.37;;;16.87;;
17864;SDS011;9058;52.018;4.202;2023-03-01T01:16:04;26.03;;;17.77;;
17864;SDS011;9058;52.018;4.202;2023-03-01T01:18:31;25.47;;;17.43;;
17864;SDS011;9058;52.018;4.202;2023-03-01T01:20:57;26.47;;;18.07;;
17864;SDS011;9058;52.018;4.202;2023-03-01T01:23:24;27.07;;;18.43;;
17864;SDS011;9058;52.018;4.202;2023-03-01T01:25:51;30.07;;;19.63;;
17864;SDS011;9058;52.018;4.202;2023-03-01T01:28:18;32.13;;;19.03;;
17864;SDS011;9058;52.018;4.202;2023-03-01T01:30:44;27.70;;;18.83;;
17864;SDS011;9058;52.018;4.202;2023-03-01T01:33:10;32.37;;;20.27;;
17864;SDS011;9058;52.018;4.202;2023-03-01T01:35:37;31.93;;;19.63;;
17864;SDS011;9058;52.018;4.202;2023-03-01T01:38:03;29.27;;;20.10;;
17864;SDS011;9058;52.018;4.202;2023-03-01T01:40:29;31.90;;;21.13;;
17864;SDS011;9058;52.018;4.202;2023-03-01T01:42:57;30.73;;;19.77;;
17864;SDS011;9058;52.018;4.202;2023-03-01T01:45:26;30.73;;;20.60;;
17864;SDS011;9058;52.018;4.202;2023-03-01T01:47:52;31.23;;;20.07;;
17864;SDS011;9058;52.018;4.202;2023-03-01T01:50:20;27.50;;;19.37;;
17864;SDS011;9058;52.018;4.202;2023-03-01T01:52:47;37.13;;;21.97;;
17864;SDS011;9058;52.018;4.202;2023-03-01T01:55:15;34.43;;;21.93;;
17864;SDS011;9058;52.018;4.202;2023-03-01T01:57:46;37.07;;;22.87;;
17864;SDS011;9058;52.018;4.202;2023-03-01T02:00:20;34.47;;;22.50;;
17864;SDS011;9058;52.018;4.202;2023-03-01T02:02:47;34.80;;;22.20;;
17864;SDS011;9058;52.018;4.202;2023-03-01T02:05:17;31.53;;;21.37;;
17864;SDS011;9058;52.018;4.202;2023-03-01T02:07:45;39.93;;;23.23;;
17864;SDS011;9058;52.018;4.202;2023-03-01T02:10:12;37.57;;;22.97;;
17864;SDS011;9058;52.018;4.202;2023-03-01T02:12:39;36.07;;;23.43;;
17864;SDS011;9058;52.018;4.202;2023-03-01T02:15:05;38.77;;;24.23;;
17864;SDS011;9058;52.018;4.202;2023-03-01T02:17:33;37.17;;;24.37;;
17864;SDS011;9058;52.018;4.202;2023-03-01T02:20:04;43.20;;;24.50;;
17864;SDS011;9058;52.018;4.202;2023-03-01T02:22:35;40.10;;;23.50;;
17864;SDS011;9058;52.018;4.202;2023-03-01T02:25:07;39.43;;;24.67;;
17864;SDS011;9058;52.018;4.202;2023-03-01T02:27:40;45.53;;;24.80;;
17864;SDS011;9058;52.018;4.202;2023-03-01T02:30:10;38.93;;;24.33;;
17864;SDS011;9058;52.018;4.202;2023-03-01T02:32:38;43.07;;;24.60;;
17864;SDS011;9058;52.018;4.202;2023-03-01T02:35:06;44.57;;;25.40;;
17864;SDS011;9058;52.018;4.202;2023-03-01T02:37:34;47.00;;;27.23;;
17864;SDS011;9058;52.018;4.202;2023-03-01T02:40:03;46.97;;;25.60;;
17864;SDS011;9058;52.018;4.202;2023-03-01T02:42:31;44.10;;;26.43;;
17864;SDS011;9058;52.018;4.202;2023-03-01T02:44:59;44.70;;;26.63;;
17864;SDS011;9058;52.018;4.202;2023-03-01T02:47:27;44.87;;;27.27;;
17864;SDS011;9058;52.018;4.202;2023-03-01T02:49:54;47.23;;;25.40;;
17864;SDS011;9058;52.018;4.202;2023-03-01T02:52:22;50.10;;;27.80;;
17864;SDS011;9058;52.018;4.202;2023-03-01T02:54:54;48.47;;;29.37;;
17864;SDS011;9058;52.018;4.202;2023-03-01T02:57:22;46.23;;;27.33;;
17864;SDS011;9058;52.018;4.202;2023-03-01T02:59:49;52.87;;;27.97;;
17864;SDS011;9058;52.018;4.202;2023-03-01T03:02:18;56.70;;;28.33;;
17864;SDS011;9058;52.018;4.202;2023-03-01T03:05:02;51.23;;;28.77;;
17864;SDS011;9058;52.018;4.202;2023-03-01T03:07:31;51.93;;;28.63;;
17864;SDS011;9058;52.018;4.202;2023-03-01T03:09:57;51.20;;;29.43;;
17864;SDS011;9058;52.018;4.202;2023-03-01T03:12:24;50.47;;;27.53;;
17864;SDS011;9058;52.018;4.202;2023-03-01T03:14:50;53.60;;;29.20;;
17864;SDS011;9058;52.018;4.202;2023-03-01T03:17:16;54.33;;;29.27;;
17864;SDS011;9058;52.018;4.202;2023-03-01T03:19:43;57.00;;;30.73;;
17864;SDS011;9058;52.018;4.202;2023-03-01T03:22:11;58.10;;;31.47;;
17864;SDS011;9058;52.018;4.202;2023-03-01T03:24:38;60.03;;;30.83;;
17864;SDS011;9058;52.018;4.202;2023-03-01T03:27:04;58.20;;;31.43;;
17864;SDS011;9058;52.018;4.202;2023-03-01T03:29:31;60.97;;;30.67;;
17864;SDS011;9058;52.018;4.202;2023-03-01T03:31:57;51.47;;;29.77;;
17864;SDS011;9058;52.018;4.202;2023-03-01T03:34:24;64.53;;;32.70;;
17864;SDS011;9058;52.018;4.202;2023-03-01T03:36:52;63.23;;;33.17;;
17864;SDS011;9058;52.018;4.202;2023-03-01T03:39:22;62.47;;;31.33;;
17864;SDS011;9058;52.018;4.202;2023-03-01T03:41:49;54.60;;;31.43;;
17864;SDS011;9058;52.018;4.202;2023-03-01T03:44:15;59.13;;;30.33;;
17864;SDS011;9058;52.018;4.202;2023-03-01T03:46:42;58.37;;;31.33;;
17864;SDS011;9058;52.018;4.202;2023-03-01T03:49:08;59.33;;;31.63;;
17864;SDS011;9058;52.018;4.202;2023-03-01T03:51:35;57.90;;;30.77;;
17864;SDS011;9058;52.018;4.202;2023-03-01T03:54:02;61.10;;;31.00;;
17864;SDS011;9058;52.018;4.202;2023-03-01T03:56:31;61.43;;;31.23;;
17864;SDS011;9058;52.018;4.202;2023-03-01T03:58:58;60.30;;;30.73;;
17864;SDS011;9058;52.018;4.202;2023-03-01T04:01:24;57.07;;;30.83;;
17864;SDS011;9058;52.018;4.202;2023-03-01T04:03:50;55.73;;;30.23;;
17864;SDS011;9058;52.018;4.202;2023-03-01T04:06:19;64.70;;;32.57;;
17864;SDS011;9058;52.018;4.202;2023-03-01T04:08:45;58.60;;;31.07;;
17864;SDS011;9058;52.018;4.202;2023-03-01T04:11:16;56.97;;;30.70;;
17864;SDS011;9058;52.018;4.202;2023-03-01T04:13:54;63.37;;;30.57;;
17864;SDS011;9058;52.018;4.202;2023-03-01T04:16:21;64.00;;;32.43;;
17864;SDS011;9058;52.018;4.202;2023-03-01T04:18:47;66.13;;;33.33;;
17864;SDS011;9058;52.018;4.202;2023-03-01T04:21:13;60.00;;;30.83;;
17864;SDS011;9058;52.018;4.202;2023-03-01T04:23:40;60.73;;;31.17;;
17864;SDS011;9058;52.018;4.202;2023-03-01T04:26:06;62.17;;;31.20;;
17864;SDS011;9058;52.018;4.202;2023-03-01T04:28:34;67.67;;;32.67;;
17864;SDS011;9058;52.018;4.202;2023-03-01T04:31:03;59.33;;;31.17;;
17864;SDS011;9058;52.018;4.202;2023-03-01T04:33:38;66.17;;;33.27;;
17864;SDS011;9058;52.018;4.202;2023-03-01T04:36:04;55.87;;;29.50;;
17864;SDS011;9058;52.018;4.202;2023-03-01T04:38:33;61.87;;;32.43;;
17864;SDS011;9058;52.018;4.202;2023-03-01T04:41:02;59.27;;;31.80;;
17864;SDS011;9058;52.018;4.202;2023-03-01T04:43:28;60.03;;;31.00;;
17864;SDS011;9058;52.018;4.202;2023-03-01T04:46:02;66.30;;;31.93;;
17864;SDS011;9058;52.018;4.202;2023-03-01T04:48:33;60.07;;;30.33;;
17864;SDS011;9058;52.018;4.202;2023-03-01T04:50:59;62.40;;;31.40;;
17864;SDS011;9058;52.018;4.202;2023-03-01T04:53:26;69.43;;;33.30;;
17864;SDS011;9058;52.018;4.202;2023-03-01T04:55:54;63.17;;;30.97;;
17864;SDS011;9058;52.018;4.202;2023-03-01T04:58:20;70.93;;;34.43;;
17864;SDS011;9058;52.018;4.202;2023-03-01T05:00:46;79.03;;;39.80;;
17864;SDS011;9058;52.018;4.202;2023-03-01T05:03:13;84.13;;;37.50;;
17864;SDS011;9058;52.018;4.202;2023-03-01T05:05:45;80.97;;;39.57;;
17864;SDS011;9058;52.018;4.202;2023-03-01T05:08:11;91.63;;;40.53;;
17864;SDS011;9058;52.018;4.202;2023-03-01T05:10:42;84.80;;;39.93;;
17864;SDS011;9058;52.018;4.202;2023-03-01T05:13:09;86.27;;;42.53;;
17864;SDS011;9058;52.018;4.202;2023-03-01T05:15:35;89.97;;;43.37;;
17864;SDS011;9058;52.018;4.202;2023-03-01T05:18:02;83.63;;;42.53;;
17864;SDS011;9058;52.018;4.202;2023-03-01T05:20:29;88.87;;;41.80;;
17864;SDS011;9058;52.018;4.202;2023-03-01T05:22:58;85.03;;;43.80;;
17864;SDS011;9058;52.018;4.202;2023-03-01T05:25:24;82.33;;;41.47;;
17864;SDS011;9058;52.018;4.202;2023-03-01T05:27:51;84.97;;;41.57;;
17864;SDS011;9058;52.018;4.202;2023-03-01T05:30:18;93.87;;;43.33;;
17864;SDS011;9058;52.018;4.202;2023-03-01T05:32:45;86.90;;;42.77;;
17864;SDS011;9058;52.018;4.202;2023-03-01T05:35:12;87.83;;;42.83;;
17864;SDS011;9058;52.018;4.202;2023-03-01T05:37:40;86.93;;;43.20;;
17864;SDS011;9058;52.018;4.202;2023-03-01T05:40:08;86.13;;;41.57;;
17864;SDS011;9058;52.018;4.202;2023-03-01T05:42:40;88.00;;;41.73;;
17864;SDS011;9058;52.018;4.202;2023-03-01T05:45:07;84.67;;;41.77;;
17864;SDS011;9058;52.018;4.202;2023-03-01T05:47:34;90.20;;;42.37;;
17864;SDS011;9058;52.018;4.202;2023-03-01T05:50:01;80.70;;;40.67;;
17864;SDS011;9058;52.018;4.202;2023-03-01T05:52:27;90.00;;;42.67;;
17864;SDS011;9058;52.018;4.202;2023-03-01T05:54:54;86.70;;;41.67;;
17864;SDS011;9058;52.018;4.202;2023-03-01T05:57:21;80.60;;;39.87;;
17864;SDS011;9058;52.018;4.202;2023-03-01T05:59:48;86.20;;;40.87;;
17864;SDS011;9058;52.018;4.202;2023-03-01T06:02:14;84.23;;;41.30;;
17864;SDS011;9058;52.018;4.202;2023-03-01T06:04:40;88.77;;;41.47;;
17864;SDS011;9058;52.018;4.202;2023-03-01T06:07:07;91.23;;;40.33;;
17864;SDS011;9058;52.018;4.202;2023-03-01T06:09:33;88.60;;;40.30;;
17864;SDS011;9058;52.018;4.202;2023-03-01T06:12:00;91.53;;;41.97;;
17864;SDS011;9058;52.018;4.202;2023-03-01T06:14:28;97.10;;;41.90;;
17864;SDS011;9058;52.018;4.202;2023-03-01T06:16:55;94.67;;;40.60;;
17864;SDS011;9058;52.018;4.202;2023-03-01T06:19:21;90.40;;;41.57;;
17864;SDS011;9058;52.018;4.202;2023-03-01T06:21:48;85.77;;;38.87;;
17864;SDS011;9058;52.018;4.202;2023-03-01T06:24:15;92.20;;;42.80;;
17864;SDS011;9058;52.018;4.202;2023-03-01T06:26:42;94.13;;;42.00;;
17864;SDS011;9058;52.018;4.202;2023-03-01T06:29:08;90.37;;;39.70;;
17864;SDS011;9058;52.018;4.202;2023-03-01T06:31:36;89.60;;;39.97;;
17864;SDS011;9058;52.018;4.202;2023-03-01T06:34:02;93.80;;;41.60;;
17864;SDS011;9058;52.018;4.202;2023-03-01T06:36:29;95.57;;;41.70;;
17864;SDS011;9058;52.018;4.202;2023-03-01T06:38:56;86.47;;;40.53;;
17864;SDS011;9058;52.018;4.202;2023-03-01T06:41:23;85.63;;;41.13;;
17864;SDS011;9058;52.018;4.202;2023-03-01T06:43:49;88.13;;;39.40;;
17864;SDS011;9058;52.018;4.202;2023-03-01T06:46:16;87.30;;;38.77;;
17864;SDS011;9058;52.018;4.202;2023-03-01T06:48:44;91.93;;;40.73;;
17864;SDS011;9058;52.018;4.202;2023-03-01T06:51:10;86.73;;;38.83;;
17864;SDS011;9058;52.018;4.202;2023-03-01T06:53:36;86.47;;;39.40;;
17864;SDS011;9058;52.018;4.202;2023-03-01T06:56:03;82.83;;;37.03;;
17864;SDS011;9058;52.018;4.202;2023-03-01T06:58:29;89.73;;;39.40;;
17864;SDS011;9058;52.018;4.202;2023-03-01T07:00:56;78.73;;;38.83;;
17864;SDS011;9058;52.018;4.202;2023-03-01T07:03:22;80.33;;;38.53;;
17864;SDS011;9058;52.018;4.202;2023-03-01T07:05:50;82.80;;;39.43;;
17864;SDS011;9058;52.018;4.202;2023-03-01T07:08:17;85.63;;;40.47;;
17864;SDS011;9058;52.018;4.202;2023-03-01T07:10:44;88.17;;;42.50;;
17864;SDS011;9058;52.018;4.202;2023-03-01T07:13:10;100.03;;;44.67;;
17864;SDS011;9058;52.018;4.202;2023-03-01T07:15:39;83.50;;;41.83;;
17864;SDS011;9058;52.018;4.202;2023-03-01T07:18:06;91.17;;;42.43;;
17864;SDS011;9058;52.018;4.202;2023-03-01T07:20:32;88.70;;;42.63;;
17864;SDS011;9058;52.018;4.202;2023-03-01T07:23:01;87.57;;;41.73;;
17864;SDS011;9058;52.018;4.202;2023-03-01T07:25:27;91.37;;;43.90;;
17864;SDS011;9058;52.018;4.202;2023-03-01T07:27:53;88.00;;;42.83;;
17864;SDS011;9058;52.018;4.202;2023-03-01T07:30:20;98.50;;;45.37;;
17864;SDS011;9058;52.018;4.202;2023-03-01T07:32:46;99.10;;;45.43;;
17864;SDS011;9058;52.018;4.202;2023-03-01T07:35:13;94.47;;;46.03;;
17864;SDS011;9058;52.018;4.202;2023-03-01T07:37:41;86.53;;;44.20;;
17864;SDS011;9058;52.018;4.202;2023-03-01T07:40:09;82.63;;;43.60;;
17864;SDS011;9058;52.018;4.202;2023-03-01T07:42:36;83.87;;;43.30;;
17864;SDS011;9058;52.018;4.202;2023-03-01T07:45:02;68.10;;;38.70;;
17864;SDS011;9058;52.018;4.202;2023-03-01T07:47:30;61.77;;;37.07;;
17864;SDS011;9058;52.018;4.202;2023-03-01T07:49:57;57.80;;;35.13;;
17864;SDS011;9058;52.018;4.202;2023-03-01T07:52:23;49.93;;;31.90;;
17864;SDS011;9058;52.018;4.202;2023-03-01T07:54:50;44.10;;;29.80;;
17864;SDS011;9058;52.018;4.202;2023-03-01T07:57:17;37.23;;;26.23;;
17864;SDS011;9058;52.018;4.202;2023-03-01T07:59:44;37.17;;;25.90;;
17864;SDS011;9058;52.018;4.202;2023-03-01T08:02:10;33.17;;;22.33;;
17864;SDS011;9058;52.018;4.202;2023-03-01T08:04:37;33.73;;;22.47;;
17864;SDS011;9058;52.018;4.202;2023-03-01T08:07:04;31.37;;;22.20;;
17864;SDS011;9058;52.018;4.202;2023-03-01T08:09:30;25.90;;;19.63;;
17864;SDS011;9058;52.018;4.202;2023-03-01T08:11:57;23.97;;;18.67;;
17864;SDS011;9058;52.018;4.202;2023-03-01T08:14:26;21.77;;;15.07;;
17864;SDS011;9058;52.018;4.202;2023-03-01T08:16:52;18.70;;;14.67;;
17864;SDS011;9058;52.018;4.202;2023-03-01T08:19:19;15.82;;;13.05;;
17864;SDS011;9058;52.018;4.202;2023-03-01T08:21:46;14.77;;;11.75;;
17864;SDS011;9058;52.018;4.202;2023-03-01T08:24:12;12.15;;;10.00;;
17864;SDS011;9058;52.018;4.202;2023-03-01T08:26:39;9.70;;;8.70;;
17864;SDS011;9058;52.018;4.202;2023-03-01T08:29:05;11.02;;;9.30;;
17864;SDS011;9058;52.018;4.202;2023-03-01T08:31:34;8.80;;;7.70;;
17864;SDS011;9058;52.018;4.202;2023-03-01T08:34:05;8.50;;;6.93;;
17864;SDS011;9058;52.018;4.202;2023-03-01T08:36:33;10.70;;;9.10;;
17864;SDS011;9058;52.018;4.202;2023-03-01T08:39:01;10.13;;;8.93;;
17864;SDS011;9058;52.018;4.202;2023-03-01T08:41:28;11.47;;;8.70;;
17864;SDS011;9058;52.018;4.202;2023-03-01T08:43:54;11.20;;;9.27;;
17864;SDS011;9058;52.018;4.202;2023-03-01T08:46:24;9.15;;;8.13;;
17864;SDS011;9058;52.018;4.202;2023-03-01T08:48:51;10.15;;;8.13;;
17864;SDS011;9058;52.018;4.202;2023-03-01T08:51:18;9.48;;;7.95;;
17864;SDS011;9058;52.018;4.202;2023-03-01T08:53:45;10.20;;;8.20;;
17864;SDS011;9058;52.018;4.202;2023-03-01T08:56:12;9.98;;;8.40;;
17864;SDS011;9058;52.018;4.202;2023-03-01T08:58:39;11.20;;;9.10;;
17864;SDS011;9058;52.018;4.202;2023-03-01T09:01:07;12.57;;;10.15;;
17864;SDS011;9058;52.018;4.202;2023-03-01T09:03:34;13.18;;;11.02;;
17864;SDS011;9058;52.018;4.202;2023-03-01T09:06:03;12.88;;;10.98;;
17864;SDS011;9058;52.018;4.202;2023-03-01T09:08:29;13.27;;;11.07;;
17864;SDS011;9058;52.018;4.202;2023-03-01T09:10:56;16.05;;;13.32;;
17864;SDS011;9058;52.018;4.202;2023-03-01T09:13:22;16.85;;;13.80;;
17864;SDS011;9058;52.018;4.202;2023-03-01T09:15:50;17.63;;;14.35;;
17864;SDS011;9058;52.018;4.202;2023-03-01T09:18:16;16.15;;;12.98;;
17864;SDS011;9058;52.018;4.202;2023-03-01T09:20:43;16.15;;;12.65;;
17864;SDS011;9058;52.018;4.202;2023-03-01T09:23:11;15.02;;;13.48;;
17864;SDS011;9058;52.018;4.202;2023-03-01T09:25:37;16.08;;;14.38;;
17864;SDS011;9058;52.018;4.202;2023-03-01T09:28:04;17.52;;;14.55;;
17864;SDS011;9058;52.018;4.202;2023-03-01T09:30:30;15.88;;;13.13;;
17864;SDS011;9058;52.018;4.202;2023-03-01T09:32:57;18.20;;;14.15;;
17864;SDS011;9058;52.018;4.202;2023-03-01T09:35:23;18.95;;;14.50;;
17864;SDS011;9058;52.018;4.202;2023-03-01T09:37:50;19.50;;;14.80;;
17864;SDS011;9058;52.018;4.202;2023-03-01T09:43:01;18.67;;;13.43;;
17864;SDS011;9058;52.018;4.202;2023-03-01T09:45:30;15.60;;;12.65;;
17864;SDS011;9058;52.018;4.202;2023-03-01T09:47:58;15.30;;;13.18;;
17864;SDS011;9058;52.018;4.202;2023-03-01T09:50:26;13.95;;;11.93;;
17864;SDS011;9058;52.018;4.202;2023-03-01T09:52:58;12.75;;;11.30;;
17864;SDS011;9058;52.018;4.202;2023-03-01T09:55:29;10.38;;;9.02;;
17864;SDS011;9058;52.018;4.202;2023-03-01T09:57:58;13.15;;;10.88;;
17864;SDS011;9058;52.018;4.202;2023-03-01T10:00:32;13.52;;;10.52;;
17864;SDS011;9058;52.018;4.202;2023-03-01T10:03:03;12.30;;;10.82;;
17864;SDS011;9058;52.018;4.202;2023-03-01T10:05:37;10.15;;;9.07;;
17864;SDS011;9058;52.018;4.202;2023-03-01T10:08:19;10.20;;;8.88;;
17864;SDS011;9058;52.018;4.202;2023-03-01T10:10:46;11.93;;;8.13;;
17864;SDS011;9058;52.018;4.202;2023-03-01T10:13:14;8.70;;;7.40;;
17864;SDS011;9058;52.018;4.202;2023-03-01T10:15:46;9.57;;;7.82;;
17864;SDS011;9058;52.018;4.202;2023-03-01T10:18:14;9.18;;;7.45;;
17864;SDS011;9058;52.018;4.202;2023-03-01T10:20:43;8.52;;;7.40;;
17864;SDS011;9058;52.018;4.202;2023-03-01T10:23:14;6.70;;;6.10;;
17864;SDS011;9058;52.018;4.202;2023-03-01T10:25:44;8.27;;;6.72;;
17864;SDS011;9058;52.018;4.202;2023-03-01T10:28:16;7.75;;;5.85;;
17864;SDS011;9058;52.018;4.202;2023-03-01T10:30:44;7.50;;;5.43;;
17864;SDS011;9058;52.018;4.202;2023-03-01T10:33:14;6.68;;;4.93;;
17864;SDS011;9058;52.018;4.202;2023-03-01T10:35:42;5.85;;;4.78;;
17864;SDS011;9058;52.018;4.202;2023-03-01T10:38:10;6.13;;;5.47;;
17864;SDS011;9058;52.018;4.202;2023-03-01T10:40:49;6.68;;;5.22;;
17864;SDS011;9058;52.018;4.202;2023-03-01T10:43:18;6.70;;;5.45;;
17864;SDS011;9058;52.018;4.202;2023-03-01T10:45:46;8.32;;;5.72;;
17864;SDS011;9058;52.018;4.202;2023-03-01T10:48:14;7.35;;;6.57;;
17864;SDS011;9058;52.018;4.202;2023-03-01T10:50:41;7.53;;;6.30;;
17864;SDS011;9058;52.018;4.202;2023-03-01T10:53:18;7.88;;;6.85;;
17864;SDS011;9058;52.018;4.202;2023-03-01T10:55:46;7.72;;;6.47;;
17864;SDS011;9058;52.018;4.202;2023-03-01T10:58:17;8.82;;;6.30;;
17864;SDS011;9058;52.018;4.202;2023-03-01T11:00:50;7.40;;;6.43;;
17864;SDS011;9058;52.018;4.202;2023-03-01T11:03:18;9.15;;;7.47;;
17864;SDS011;9058;52.018;4.202;2023-03-01T11:05:51;8.13;;;6.40;;
17864;SDS011;9058;52.018;4.202;2023-03-01T11:08:28;8.38;;;6.68;;
17864;SDS011;9058;52.018;4.202;2023-03-01T11:11:02;7.68;;;6.53;;
17864;SDS011;9058;52.018;4.202;2023-03-01T11:13:29;7.20;;;6.50;;
17864;SDS011;9058;52.018;4.202;2023-03-01T11:16:03;10.45;;;6.82;;
17864;SDS011;9058;52.018;4.202;2023-03-01T11:18:31;9.43;;;7.95;;
17864;SDS011;9058;52.018;4.202;2023-03-01T11:20:58;8.10;;;6.70;;
17864;SDS011;9058;52.018;4.202;2023-03-01T11:23:25;7.97;;;6.25;;
17864;SDS011;9058;52.018;4.202;2023-03-01T11:25:55;7.82;;;6.97;;
17864;SDS011;9058;52.018;4.202;2023-03-01T11:28:23;7.80;;;6.30;;
17864;SDS011;9058;52.018;4.202;2023-03-01T11:30:51;8.38;;;7.45;;
17864;SDS011;9058;52.018;4.202;2023-03-01T11:33:24;8.23;;;7.43;;
17864;SDS011;9058;52.018;4.202;2023-03-01T11:36:00;7.82;;;7.05;;
17864;SDS011;9058;52.018;4.202;2023-03-01T11:38:28;6.20;;;5.53;;
17864;SDS011;9058;52.018;4.202;2023-03-01T11:40:56;8.13;;;6.30;;
17864;SDS011;9058;52.018;4.202;2023-03-01T11:43:27;8.82;;;7.63;;
17864;SDS011;9058;52.018;4.202;2023-03-01T11:46:01;8.88;;;7.75;;
17864;SDS011;9058;52.018;4.202;2023-03-01T11:48:35;10.27;;;7.35;;
17864;SDS011;9058;52.018;4.202;2023-03-01T11:51:07;9.10;;;7.03;;
17864;SDS011;9058;52.018;4.202;2023-03-01T11:53:40;9.82;;;7.50;;
17864;SDS011;9058;52.018;4.202;2023-03-01T11:56:16;7.80;;;6.95;;
17864;SDS011;9058;52.018;4.202;2023-03-01T11:58:55;9.82;;;7.38;;
17864;SDS011;9058;52.018;4.202;2023-03-01T12:01:28;9.18;;;7.32;;
17864;SDS011;9058;52.018;4.202;2023-03-01T12:04:10;9.80;;;8.05;;
17864;SDS011;9058;52.018;4.202;2023-03-01T12:06:47;8.35;;;6.60;;
17864;SDS011;9058;52.018;4.202;2023-03-01T12:09:19;9.65;;;7.60;;
17864;SDS011;9058;52.018;4.202;2023-03-01T12:11:53;8.73;;;7.35;;
17864;SDS011;9058;52.018;4.202;2023-03-01T12:14:28;10.10;;;7.82;;
17864;SDS011;9058;52.018;4.202;2023-03-01T12:17:10;8.60;;;7.53;;
17864;SDS011;9058;52.018;4.202;2023-03-01T12:19:46;8.23;;;7.28;;
17864;SDS011;9058;52.018;4.202;2023-03-01T12:22:26;9.20;;;8.07;;
17864;SDS011;9058;52.018;4.202;2023-03-01T12:24:58;8.88;;;7.97;;
17864;SDS011;9058;52.018;4.202;2023-03-01T12:27:32;10.48;;;8.48;;
17864;SDS011;9058;52.018;4.202;2023-03-01T12:30:04;10.43;;;9.32;;
17864;SDS011;9058;52.018;4.202;2023-03-01T12:32:40;8.93;;;7.25;;
17864;SDS011;9058;52.018;4.202;2023-03-01T12:35:16;9.38;;;7.88;;
17864;SDS011;9058;52.018;4.202;2023-03-01T12:37:51;8.85;;;7.57;;
17864;SDS011;9058;52.018;4.202;2023-03-01T12:40:25;8.90;;;7.63;;
17864;SDS011;9058;52.018;4.202;2023-03-01T12:42:56;9.00;;;7.82;;
17864;SDS011;9058;52.018;4.202;2023-03-01T12:45:29;9.32;;;8.32;;
17864;SDS011;9058;52.018;4.202;2023-03-01T12:48:03;11.15;;;9.38;;
17864;SDS011;9058;52.018;4.202;2023-03-01T12:50:38;10.82;;;9.63;;
17864;SDS011;9058;52.018;4.202;2023-03-01T12:53:07;10.57;;;9.35;;
17864;SDS011;9058;52.018;4.202;2023-03-01T12:55:36;10.55;;;8.63;;
17864;SDS011;9058;52.018;4.202;2023-03-01T12:58:05;12.20;;;8.60;;
17864;SDS011;9058;52.018;4.202;2023-03-01T13:00:35;11.77;;;9.05;;
17864;SDS011;9058;52.018;4.202;2023-03-01T13:03:09;11.02;;;9.70;;
17864;SDS011;9058;52.018;4.202;2023-03-01T13:05:42;9.43;;;8.40;;
17864;SDS011;9058;52.018;4.202;2023-03-01T13:08:15;9.23;;;8.05;;
17864;SDS011;9058;52.018;4.202;2023-03-01T13:10:43;7.72;;;6.75;;
17864;SDS011;9058;52.018;4.202;2023-03-01T13:13:13;9.52;;;7.88;;
17864;SDS011;9058;52.018;4.202;2023-03-01T13:15:40;8.38;;;7.13;;
17864;SDS011;9058;52.018;4.202;2023-03-01T13:20:58;8.68;;;7.68;;
17864;SDS011;9058;52.018;4.202;2023-03-01T13:23:26;10.10;;;8.52;;
17864;SDS011;9058;52.018;4.202;2023-03-01T13:26:01;9.60;;;7.70;;
17864;SDS011;9058;52.018;4.202;2023-03-01T13:28:38;10.05;;;8.10;;
17864;SDS011;9058;52.018;4.202;2023-03-01T13:31:06;10.93;;;9.20;;
17864;SDS011;9058;52.018;4.202;2023-03-01T13:33:37;11.35;;;8.77;;
17864;SDS011;9058;52.018;4.202;2023-03-01T13:36:09;13.50;;;9.82;;
17864;SDS011;9058;52.018;4.202;2023-03-01T13:38:44;10.98;;;9.05;;
17864;SDS011;9058;52.018;4.202;2023-03-01T13:41:12;14.07;;;10.70;;
17864;SDS011;9058;52.018;4.202;2023-03-01T13:43:40;11.40;;;9.55;;
17864;SDS011;9058;52.018;4.202;2023-03-01T13:46:08;12.85;;;9.32;;
17864;SDS011;9058;52.018;4.202;2023-03-01T13:48:36;11.35;;;9.52;;
17864;SDS011;9058;52.018;4.202;2023-03-01T13:51:03;13.70;;;10.35;;
17864;SDS011;9058;52.018;4.202;2023-03-01T13:53:35;12.88;;;10.13;;
17864;SDS011;9058;52.018;4.202;2023-03-01T13:56:07;13.20;;;10.23;;
17864;SDS011;9058;52.018;4.202;2023-03-01T13:58:43;11.88;;;9.73;;
17864;SDS011;9058;52.018;4.202;2023-03-01T14:01:20;12.85;;;9.00;;
17864;SDS011;9058;52.018;4.202;2023-03-01T14:03:47;11.23;;;9.48;;
17864;SDS011;9058;52.018;4.202;2023-03-01T14:06:15;11.82;;;8.85;;
17864;SDS011;9058;52.018;4.202;2023-03-01T14:08:45;10.38;;;8.68;;
17864;SDS011;9058;52.018;4.202;2023-03-01T14:11:28;11.90;;;8.27;;
17864;SDS011;9058;52.018;4.202;2023-03-01T14:14:01;11.57;;;8.65;;
17864;SDS011;9058;52.018;4.202;2023-03-01T14:16:33;10.38;;;7.53;;
17864;SDS011;9058;52.018;4.202;2023-03-01T14:19:09;10.40;;;7.63;;
17864;SDS011;9058;52.018;4.202;2023-03-01T14:21:38;10.55;;;8.20;;
17864;SDS011;9058;52.018;4.202;2023-03-01T14:24:13;9.70;;;7.18;;
17864;SDS011;9058;52.018;4.202;2023-03-01T14:26:41;9.88;;;8.57;;
17864;SDS011;9058;52.018;4.202;2023-03-01T14:29:22;9.93;;;7.85;;
17864;SDS011;9058;52.018;4.202;2023-03-01T14:31:49;10.07;;;8.00;;
17864;SDS011;9058;52.018;4.202;2023-03-01T14:34:18;9.30;;;7.30;;
17864;SDS011;9058;52.018;4.202;2023-03-01T14:36:46;10.60;;;8.18;;
17864;SDS011;9058;52.018;4.202;2023-03-01T14:39:17;8.68;;;7.32;;
17864;SDS011;9058;52.018;4.202;2023-03-01T14:41:44;9.70;;;8.65;;
17864;SDS011;9058;52.018;4.202;2023-03-01T14:44:12;8.73;;;7.50;;
17864;SDS011;9058;52.018;4.202;2023-03-01T14:46:42;9.05;;;7.00;;
17864;SDS011;9058;52.018;4.202;2023-03-01T14:49:10;9.80;;;7.22;;
17864;SDS011;9058;52.018;4.202;2023-03-01T14:51:38;8.27;;;6.82;;
17864;SDS011;9058;52.018;4.202;2023-03-01T14:54:10;11.70;;;7.82;;
17864;SDS011;9058;52.018;4.202;2023-03-01T14:56:46;10.50;;;6.93;;
17864;SDS011;9058;52.018;4.202;2023-03-01T14:59:12;8.05;;;6.72;;